createdAt,value
2018-08-14T00:00:43.756Z,75.81
2018-08-14T00:03:11.211Z,75.56
2018-08-14T00:05:38.778Z,75.71
2018-08-14T00:08:06.215Z,76.41
2018-08-14T00:10:33.685Z,76.77
2018-08-14T00:13:01.944Z,77.17
2018-08-14T00:15:29.426Z,77.13
2018-08-14T00:17:56.884Z,76.82
2018-08-14T00:20:24.320Z,76.17
2018-08-14T00:22:51.747Z,75.68
2018-08-14T00:25:19.159Z,76.10
2018-08-14T00:27:46.737Z,76.40
2018-08-14T00:30:14.127Z,76.48
2018-08-14T00:32:41.610Z,77.00
2018-08-14T00:35:09.059Z,76.43
2018-08-14T00:37:36.490Z,77.11
2018-08-14T00:40:04.184Z,76.85
2018-08-14T00:42:31.622Z,77.51
2018-08-14T00:44:59.099Z,77.50
2018-08-14T00:47:26.550Z,76.53
2018-08-14T00:49:54.023Z,76.38
2018-08-14T00:52:21.493Z,76.09
2018-08-14T00:54:48.922Z,76.95
2018-08-14T00:57:16.482Z,76.14
2018-08-14T00:59:43.937Z,75.77
2018-08-14T01:02:11.449Z,75.92
2018-08-14T01:04:38.843Z,76.25
2018-08-14T01:07:06.305Z,76.65
2018-08-14T01:09:33.739Z,76.43
2018-08-14T01:12:02.080Z,76.57
2018-08-14T01:14:29.564Z,75.98
2018-08-14T01:16:56.991Z,75.84
2018-08-14T01:19:24.471Z,75.12
2018-08-14T01:21:52.042Z,75.46
2018-08-14T01:24:19.644Z,74.52
2018-08-14T01:26:47.254Z,74.38
2018-08-14T01:29:14.712Z,74.82
2018-08-14T01:31:42.200Z,75.47
2018-08-14T01:34:09.648Z,75.02
2018-08-14T01:36:37.109Z,75.98
2018-08-14T01:39:04.533Z,75.80
2018-08-14T01:41:32.048Z,77.06
2018-08-14T01:43:59.486Z,77.50
2018-08-14T01:46:26.929Z,77.52
2018-08-14T01:48:54.368Z,77.48
2018-08-14T01:51:21.773Z,76.83
2018-08-14T01:53:49.210Z,76.84
2018-08-14T01:56:16.673Z,76.49
2018-08-14T01:58:44.258Z,76.87
2018-08-14T02:01:11.727Z,76.80
2018-08-14T02:03:39.119Z,76.85
2018-08-14T02:06:06.559Z,76.94
2018-08-14T02:08:34.057Z,77.23
2018-08-14T02:11:01.454Z,77.99
2018-08-14T02:13:28.935Z,78.22
2018-08-14T02:15:56.431Z,78.29
2018-08-14T02:18:23.856Z,78.06
2018-08-14T02:20:51.331Z,77.79
2018-08-14T02:23:18.746Z,78.22
2018-08-14T02:25:46.286Z,78.75
2018-08-14T02:28:13.698Z,79.19
2018-08-14T02:30:41.150Z,79.08
2018-08-14T02:33:08.568Z,79.27
2018-08-14T02:35:36.020Z,78.57
2018-08-14T02:38:03.430Z,78.39
2018-08-14T02:40:30.896Z,77.97
2018-08-14T02:42:58.378Z,77.38
2018-08-14T02:45:25.779Z,77.17
2018-08-14T02:47:53.256Z,77.20
2018-08-14T02:50:20.732Z,77.22
2018-08-14T02:52:48.964Z,77.17
2018-08-14T02:55:16.451Z,77.22
2018-08-14T02:57:43.862Z,77.39
2018-08-14T03:00:11.345Z,77.20
2018-08-14T03:02:38.777Z,77.41
2018-08-14T03:05:06.263Z,77.29
2018-08-14T03:07:33.732Z,77.31
2018-08-14T03:10:01.134Z,77.17
2018-08-14T03:12:28.594Z,77.13
2018-08-14T03:14:56.015Z,77.50
2018-08-14T03:17:23.427Z,77.60
2018-08-14T03:19:50.892Z,77.79
2018-08-14T03:22:18.340Z,78.30
2018-08-14T03:24:45.922Z,78.46
2018-08-14T03:27:13.339Z,78.50
2018-08-14T03:29:40.810Z,78.37
2018-08-14T03:32:08.309Z,78.29
2018-08-14T03:34:35.727Z,78.37
2018-08-14T03:37:03.168Z,78.31
2018-08-14T03:39:30.622Z,78.22
2018-08-14T03:41:58.092Z,78.44
2018-08-14T03:44:25.539Z,78.25
2018-08-14T03:46:52.954Z,78.22
2018-08-14T03:49:20.418Z,78.18
2018-08-14T03:51:47.890Z,78.14
2018-08-14T03:54:15.309Z,78.33
2018-08-14T03:56:42.726Z,78.65
2018-08-14T03:59:10.163Z,78.85
2018-08-14T04:01:37.734Z,78.68
2018-08-14T04:04:05.155Z,79.07
2018-08-14T04:06:32.604Z,79.18
2018-08-14T04:09:00.016Z,78.86
2018-08-14T04:11:27.410Z,79.25
2018-08-14T04:13:54.865Z,79.40
2018-08-14T04:16:22.353Z,79.52
2018-08-14T04:18:49.771Z,79.63
2018-08-14T04:21:17.248Z,79.91
2018-08-14T04:23:44.701Z,79.58
2018-08-14T04:26:12.159Z,79.36
2018-08-14T04:28:39.675Z,79.86
2018-08-14T04:31:07.112Z,79.75
2018-08-14T04:33:34.590Z,79.90
2018-08-14T04:36:02.140Z,79.59
2018-08-14T04:38:29.656Z,79.92
2018-08-14T04:40:57.083Z,79.46
2018-08-14T04:43:24.532Z,79.35
2018-08-14T04:45:52.035Z,79.59
2018-08-14T04:48:19.513Z,79.50
2018-08-14T04:50:46.981Z,79.10
2018-08-14T04:53:15.210Z,78.50
2018-08-14T04:55:42.711Z,78.63
2018-08-14T04:58:10.116Z,77.93
2018-08-14T05:00:37.557Z,77.31
2018-08-14T05:03:05.001Z,76.96
2018-08-14T05:05:32.644Z,77.13
2018-08-14T05:08:00.096Z,76.92
2018-08-14T05:10:27.518Z,76.67
2018-08-14T05:12:54.961Z,76.37
2018-08-14T05:15:22.426Z,75.88
2018-08-14T05:17:49.972Z,75.72
2018-08-14T05:20:17.482Z,75.27
2018-08-14T05:22:45.015Z,75.35
2018-08-14T05:25:12.585Z,75.56
2018-08-14T05:27:39.974Z,75.51
2018-08-14T05:30:07.418Z,75.36
2018-08-14T05:32:34.945Z,75.79
2018-08-14T05:35:02.371Z,75.48
2018-08-14T05:37:29.800Z,75.51
2018-08-14T05:39:57.332Z,75.67
2018-08-14T05:42:24.737Z,75.41
2018-08-14T05:44:52.285Z,74.65
2018-08-14T05:47:19.864Z,73.71
2018-08-14T05:49:47.325Z,72.82
2018-08-14T05:52:14.761Z,71.90
2018-08-14T05:54:42.197Z,71.17
2018-08-14T05:57:09.627Z,70.05
2018-08-14T05:59:37.092Z,70.09
2018-08-14T06:02:04.541Z,69.73
2018-08-14T06:04:32.003Z,69.01
2018-08-14T06:06:59.474Z,69.73
2018-08-14T06:09:26.916Z,69.24
2018-08-14T06:11:54.332Z,69.73
2018-08-14T06:14:21.920Z,69.58
2018-08-14T06:16:49.397Z,70.36
2018-08-14T06:19:16.834Z,70.00
2018-08-14T06:21:44.278Z,68.63
2018-08-14T06:24:11.690Z,67.88
2018-08-14T06:26:39.137Z,68.35
2018-08-14T06:29:06.665Z,68.75
2018-08-14T06:31:34.307Z,67.94
2018-08-14T06:34:01.739Z,67.42
2018-08-14T06:36:29.144Z,66.37
2018-08-14T06:38:56.559Z,65.40
2018-08-14T06:41:24.049Z,64.80
2018-08-14T06:43:51.452Z,63.40
2018-08-14T06:46:18.912Z,62.05
2018-08-14T06:48:46.393Z,59.85
2018-08-14T06:51:13.880Z,58.87
2018-08-14T06:53:41.325Z,58.51
2018-08-14T06:56:08.769Z,57.87
2018-08-14T06:58:36.208Z,58.41
2018-08-14T07:01:03.656Z,59.15
2018-08-14T07:03:31.126Z,60.02
2018-08-14T07:05:58.636Z,60.53
2018-08-14T07:08:26.079Z,59.97
2018-08-14T07:10:53.578Z,59.56
2018-08-14T07:13:21.090Z,60.21
2018-08-14T07:15:48.512Z,60.14
2018-08-14T07:18:16.005Z,59.88
2018-08-14T07:20:43.406Z,59.92
2018-08-14T07:23:10.884Z,59.39
2018-08-14T07:25:38.345Z,60.25
2018-08-14T07:28:05.812Z,60.34
2018-08-14T07:30:33.550Z,61.37
2018-08-14T07:33:01.064Z,60.68
2018-08-14T07:35:28.500Z,60.42
2018-08-14T07:37:56.002Z,59.73
2018-08-14T07:40:24.110Z,59.96
2018-08-14T07:42:51.614Z,60.48
2018-08-14T07:45:19.031Z,60.31
2018-08-14T07:47:46.495Z,60.19
2018-08-14T07:50:14.116Z,59.63
2018-08-14T07:52:41.533Z,57.42
2018-08-14T07:55:09.261Z,56.70
2018-08-14T07:57:36.761Z,55.21
2018-08-14T08:00:04.268Z,54.46
2018-08-14T08:02:31.802Z,54.98
2018-08-14T08:04:59.253Z,55.93
2018-08-14T08:07:26.799Z,56.50
2018-08-14T08:09:54.275Z,56.58
2018-08-14T08:12:21.789Z,56.72
2018-08-14T08:14:49.213Z,56.32
2018-08-14T08:17:16.634Z,55.70
2018-08-14T08:19:44.188Z,52.02
2018-08-14T08:22:11.690Z,50.31
2018-08-14T08:24:39.832Z,48.69
2018-08-14T08:27:07.621Z,45.91
2018-08-14T08:29:35.171Z,43.77
2018-08-14T08:32:02.604Z,42.13
2018-08-14T08:34:30.477Z,41.44
2018-08-14T08:36:57.875Z,40.68
2018-08-14T08:39:25.300Z,40.68
2018-08-14T08:41:52.795Z,41.61
2018-08-14T08:44:20.279Z,43.24
2018-08-14T08:46:47.714Z,43.27
2018-08-14T08:49:15.185Z,43.19
2018-08-14T08:51:42.716Z,43.59
2018-08-14T08:54:10.144Z,43.06
2018-08-14T08:56:37.629Z,42.65
2018-08-14T08:59:05.079Z,42.88
2018-08-14T09:01:32.476Z,43.29
2018-08-14T09:03:59.977Z,43.39
2018-08-14T09:06:27.422Z,44.83
2018-08-14T09:08:54.926Z,45.72
2018-08-14T09:11:22.334Z,47.27
2018-08-14T09:13:49.777Z,48.12
2018-08-14T09:16:17.322Z,48.33
2018-08-14T09:18:44.826Z,49.18
2018-08-14T09:21:12.295Z,49.73
2018-08-14T09:23:39.767Z,50.24
2018-08-14T09:26:07.255Z,50.75
2018-08-14T09:28:34.740Z,50.40
2018-08-14T09:31:02.172Z,50.85
2018-08-14T09:33:29.585Z,49.33
2018-08-14T09:35:57.126Z,47.50
2018-08-14T09:38:24.569Z,46.40
2018-08-14T09:40:52.004Z,45.57
2018-08-14T09:43:19.433Z,43.62
2018-08-14T09:45:46.903Z,42.82
2018-08-14T09:48:14.916Z,42.05
2018-08-14T09:50:42.385Z,41.50
2018-08-14T09:53:09.888Z,41.05
2018-08-14T09:55:36.858Z,39.73
2018-08-14T09:58:04.704Z,39.22
2018-08-14T10:00:32.233Z,39.72
2018-08-14T10:02:59.825Z,41.26
2018-08-14T10:05:27.326Z,42.77
2018-08-14T10:07:54.852Z,43.92
2018-08-14T10:10:21.957Z,44.49
2018-08-14T10:12:49.403Z,45.03
2018-08-14T10:15:16.531Z,44.84
2018-08-14T10:17:43.694Z,43.55
2018-08-14T10:20:13.802Z,40.83
2018-08-14T10:22:41.748Z,40.40
2018-08-14T10:25:08.831Z,40.44
2018-08-14T10:27:36.613Z,41.38
2018-08-14T10:30:04.088Z,42.42
2018-08-14T10:32:31.092Z,42.85
2018-08-14T10:34:58.973Z,43.12
2018-08-14T10:37:26.439Z,43.16
2018-08-14T10:39:53.934Z,43.23
2018-08-14T10:42:21.397Z,44.42
2018-08-14T10:44:49.078Z,45.22
2018-08-14T10:47:16.625Z,46.40
2018-08-14T10:49:44.130Z,47.25
2018-08-14T10:52:11.619Z,49.43
2018-08-14T10:54:39.119Z,49.82
2018-08-14T10:57:06.683Z,49.81
2018-08-14T10:59:33.882Z,51.27
2018-08-14T11:02:01.352Z,50.80
2018-08-14T11:04:28.820Z,49.15
2018-08-14T11:06:56.275Z,48.29
2018-08-14T11:09:23.755Z,48.02
2018-08-14T11:11:51.252Z,48.16
2018-08-14T11:14:18.752Z,48.00
2018-08-14T11:16:46.160Z,48.37
2018-08-14T11:19:13.618Z,48.54
2018-08-14T11:21:41.108Z,48.74
2018-08-14T11:24:08.577Z,48.32
2018-08-14T11:26:36.005Z,47.94
2018-08-14T11:29:03.486Z,47.33
2018-08-14T11:31:30.923Z,46.73
2018-08-14T11:33:58.422Z,47.03
2018-08-14T11:36:25.945Z,46.37
2018-08-14T11:38:53.429Z,45.46
2018-08-14T11:41:20.859Z,44.59
2018-08-14T11:43:48.328Z,44.63
2018-08-14T11:46:15.923Z,44.45
2018-08-14T11:48:43.471Z,44.94
2018-08-14T11:51:10.981Z,44.88
2018-08-14T11:53:38.468Z,44.71
2018-08-14T11:56:05.941Z,44.46
2018-08-14T11:58:33.415Z,43.46
2018-08-14T12:01:00.887Z,42.73
2018-08-14T12:03:28.389Z,42.23
2018-08-14T12:05:55.867Z,41.37
2018-08-14T12:08:23.324Z,40.95
2018-08-14T12:10:50.805Z,39.95
2018-08-14T12:13:18.388Z,38.79
2018-08-14T12:15:45.836Z,38.97
2018-08-14T12:18:13.411Z,38.70
2018-08-14T12:20:40.850Z,37.46
2018-08-14T12:23:08.384Z,36.67
2018-08-14T12:25:35.859Z,36.12
2018-08-14T12:28:03.367Z,36.82
2018-08-14T12:30:30.354Z,38.98
2018-08-14T12:32:57.417Z,39.95
2018-08-14T12:35:24.613Z,40.42
2018-08-14T12:37:51.971Z,39.90
2018-08-14T12:40:19.031Z,39.23
2018-08-14T12:42:46.029Z,38.83
2018-08-14T12:45:13.534Z,40.11
2018-08-14T12:47:40.572Z,40.83
2018-08-14T12:50:08.038Z,41.23
2018-08-14T12:52:35.042Z,40.72
2018-08-14T12:55:02.061Z,40.69
2018-08-14T12:57:29.085Z,41.39
2018-08-14T12:59:56.664Z,41.81
2018-08-14T13:02:23.779Z,42.99
2018-08-14T13:04:51.179Z,45.78
2018-08-14T13:07:18.628Z,46.96
2018-08-14T13:09:46.098Z,47.15
2018-08-14T13:12:13.603Z,46.63
2018-08-14T13:14:42.047Z,46.23
2018-08-14T13:17:09.555Z,45.88
2018-08-14T13:19:37.179Z,45.73
2018-08-14T13:22:04.651Z,46.21
2018-08-14T13:24:32.324Z,46.74
2018-08-14T13:26:59.768Z,47.54
2018-08-14T13:29:27.334Z,46.79
2018-08-14T13:31:54.923Z,46.70
2018-08-14T13:34:22.404Z,47.65
2018-08-14T13:36:49.850Z,48.02
2018-08-14T13:39:17.257Z,48.23
2018-08-14T13:41:44.732Z,49.47
2018-08-14T13:44:12.173Z,49.88
2018-08-14T13:46:39.581Z,50.02
2018-08-14T13:49:07.068Z,47.67
2018-08-14T13:51:34.528Z,46.29
2018-08-14T13:54:02.038Z,45.95
2018-08-14T13:56:29.644Z,43.84
2018-08-14T13:58:57.150Z,44.42
2018-08-14T14:01:24.584Z,44.07
2018-08-14T14:03:52.044Z,42.82
2018-08-14T14:06:19.441Z,41.10
2018-08-14T14:08:46.879Z,40.01
2018-08-14T14:11:14.369Z,39.58
2018-08-14T14:13:41.838Z,39.94
2018-08-14T14:16:10.066Z,39.57
2018-08-14T14:18:37.551Z,38.70
2018-08-14T14:21:05.097Z,38.79
2018-08-14T14:23:32.547Z,38.59
2018-08-14T14:26:00.139Z,38.77
2018-08-14T14:28:28.321Z,38.71
2018-08-14T14:30:55.789Z,38.20
2018-08-14T14:33:23.256Z,39.04
2018-08-14T14:35:50.777Z,39.77
2018-08-14T14:38:18.236Z,39.96
2018-08-14T14:40:45.695Z,39.46
2018-08-14T14:43:13.202Z,39.26
2018-08-14T14:45:40.621Z,39.18
2018-08-14T14:48:08.086Z,39.92
2018-08-14T14:50:35.593Z,40.41
2018-08-14T14:53:03.140Z,39.45
2018-08-14T14:55:30.538Z,39.82
2018-08-14T14:57:58.093Z,39.84
2018-08-14T15:00:25.648Z,39.24
2018-08-14T15:02:53.240Z,39.04
2018-08-14T15:05:20.748Z,38.72
2018-08-14T15:07:48.230Z,38.14
2018-08-14T15:10:15.770Z,38.68
2018-08-14T15:12:43.341Z,38.27
2018-08-14T15:15:10.745Z,38.28
2018-08-14T15:17:38.345Z,38.62
2018-08-14T15:20:05.822Z,38.47
2018-08-14T15:22:33.238Z,38.18
2018-08-14T15:25:01.384Z,38.23
2018-08-14T15:27:28.807Z,38.60
2018-08-14T15:29:56.303Z,39.03
2018-08-14T15:32:23.729Z,39.14
2018-08-14T15:34:51.170Z,39.27
2018-08-14T15:37:18.631Z,40.12
2018-08-14T15:39:46.102Z,40.49
2018-08-14T15:42:13.540Z,40.99
2018-08-14T15:44:40.956Z,41.40
2018-08-14T15:47:08.504Z,41.55
2018-08-14T15:49:36.167Z,41.85
2018-08-14T15:52:03.503Z,42.45
2018-08-14T15:54:31.083Z,42.48
2018-08-14T15:56:58.545Z,42.38
2018-08-14T15:59:25.997Z,41.91
2018-08-14T16:01:53.514Z,42.41
2018-08-14T16:04:21.631Z,42.79
2018-08-14T16:06:49.063Z,43.57
2018-08-14T16:09:16.617Z,43.89
2018-08-14T16:11:44.083Z,44.69
2018-08-14T16:14:11.524Z,44.69
2018-08-14T16:16:38.979Z,44.13
2018-08-14T16:19:06.421Z,43.42
2018-08-14T16:21:33.918Z,43.38
2018-08-14T16:24:02.285Z,43.11
2018-08-14T16:26:29.736Z,43.26
2018-08-14T16:28:57.201Z,43.49
2018-08-14T16:31:24.662Z,43.37
2018-08-14T16:33:52.124Z,43.11
2018-08-14T16:36:19.621Z,42.86
2018-08-14T16:38:47.038Z,42.68
2018-08-14T16:41:14.560Z,42.70
2018-08-14T16:43:42.033Z,42.87
2018-08-14T16:46:09.510Z,42.86
2018-08-14T16:48:36.969Z,43.02
2018-08-14T16:51:04.451Z,42.99
2018-08-14T16:53:31.893Z,42.55
2018-08-14T16:55:59.394Z,42.20
2018-08-14T16:58:26.895Z,41.86
2018-08-14T17:00:54.388Z,41.61
2018-08-14T17:03:21.814Z,41.27
2018-08-14T17:05:49.904Z,41.86
2018-08-14T17:08:17.404Z,42.03
2018-08-14T17:10:45.599Z,41.92
2018-08-14T17:13:13.047Z,41.67
2018-08-14T17:15:40.473Z,41.51
2018-08-14T17:18:07.992Z,42.17
2018-08-14T17:20:34.946Z,42.38
2018-08-14T17:23:02.367Z,42.88
2018-08-14T17:25:29.871Z,43.04
2018-08-14T17:27:57.455Z,43.02
2018-08-14T17:30:25.055Z,43.11
2018-08-14T17:32:52.551Z,43.71
2018-08-14T17:35:19.956Z,44.82
2018-08-14T17:37:47.404Z,45.50
2018-08-14T17:40:14.954Z,45.27
2018-08-14T17:42:42.426Z,45.18
2018-08-14T17:45:10.826Z,45.53
2018-08-14T17:47:38.296Z,45.98
2018-08-14T17:50:05.785Z,46.26
2018-08-14T17:52:33.288Z,46.56
2018-08-14T17:55:01.137Z,47.00
2018-08-14T17:57:28.617Z,47.43
2018-08-14T17:59:56.225Z,48.25
2018-08-14T18:02:23.735Z,48.33
2018-08-14T18:04:51.210Z,48.37
2018-08-14T18:07:18.634Z,48.37
2018-08-14T18:09:46.121Z,48.37
2018-08-14T18:12:13.592Z,48.49
2018-08-14T18:14:41.052Z,48.72
2018-08-14T18:17:08.506Z,48.79
2018-08-14T18:19:36.019Z,49.04
2018-08-14T18:22:03.437Z,49.04
2018-08-14T18:24:30.930Z,49.24
2018-08-14T18:26:58.352Z,49.53
2018-08-14T18:29:25.888Z,49.87
2018-08-14T18:31:53.338Z,49.98
2018-08-14T18:34:20.795Z,49.53
2018-08-14T18:36:48.249Z,49.62
2018-08-14T18:39:15.715Z,49.82
2018-08-14T18:41:43.180Z,49.95
2018-08-14T18:44:10.703Z,50.22
2018-08-14T18:46:38.163Z,50.45
2018-08-14T18:49:05.851Z,50.64
2018-08-14T18:51:33.299Z,50.76
2018-08-14T18:54:00.798Z,50.82
2018-08-14T18:56:28.283Z,50.91
2018-08-14T18:58:55.719Z,50.51
2018-08-14T19:01:23.155Z,50.55
2018-08-14T19:03:50.656Z,50.74
2018-08-14T19:06:18.104Z,50.81
2018-08-14T19:08:45.593Z,51.67
2018-08-14T19:11:13.110Z,51.98
2018-08-14T19:13:40.675Z,51.88
2018-08-14T19:16:08.168Z,52.04
2018-08-14T19:18:35.649Z,52.03
2018-08-14T19:21:04.192Z,52.34
2018-08-14T19:23:31.767Z,52.67
2018-08-14T19:25:59.232Z,53.07
2018-08-14T19:28:26.687Z,53.69
2018-08-14T19:30:54.096Z,53.42
2018-08-14T19:33:21.538Z,53.11
2018-08-14T19:35:48.998Z,53.01
2018-08-14T19:38:16.432Z,52.98
2018-08-14T19:40:43.889Z,52.92
2018-08-14T19:43:11.484Z,52.91
2018-08-14T19:45:38.865Z,53.06
2018-08-14T19:48:06.345Z,53.09
2018-08-14T19:50:33.855Z,53.31
2018-08-14T19:53:01.317Z,53.52
2018-08-14T19:55:28.955Z,53.74
2018-08-14T19:57:56.399Z,53.74
2018-08-14T20:00:23.882Z,53.70
2018-08-14T20:02:51.405Z,54.03
2018-08-14T20:05:18.815Z,54.34
2018-08-14T20:07:46.311Z,54.44
2018-08-14T20:10:13.791Z,54.37
2018-08-14T20:12:41.260Z,54.23
2018-08-14T20:15:08.699Z,54.87
2018-08-14T20:17:36.323Z,55.36
2018-08-14T20:20:03.738Z,55.44
2018-08-14T20:22:31.190Z,55.51
2018-08-14T20:24:58.709Z,55.66
2018-08-14T20:27:26.142Z,55.53
2018-08-14T20:29:53.674Z,54.60
2018-08-14T20:32:22.072Z,54.45
2018-08-14T20:34:49.477Z,54.36
2018-08-14T20:37:16.977Z,54.48
2018-08-14T20:39:44.614Z,54.84
2018-08-14T20:42:12.044Z,54.74
2018-08-14T20:44:39.505Z,54.60
2018-08-14T20:47:07.079Z,54.83
2018-08-14T20:49:34.588Z,54.65
2018-08-14T20:52:01.979Z,54.80
2018-08-14T20:54:29.457Z,54.88
2018-08-14T20:56:56.910Z,55.09
2018-08-14T20:59:24.380Z,54.68
2018-08-14T21:01:51.807Z,54.63
2018-08-14T21:04:19.223Z,54.91
2018-08-14T21:06:46.758Z,55.19
2018-08-14T21:09:14.194Z,55.56
2018-08-14T21:11:41.665Z,55.57
2018-08-14T21:14:09.111Z,55.48
2018-08-14T21:16:37.078Z,55.80
2018-08-14T21:19:04.496Z,55.60
2018-08-14T21:21:31.967Z,55.59
2018-08-14T21:23:59.479Z,55.81
2018-08-14T21:26:27.007Z,56.17
2018-08-14T21:28:54.469Z,56.31
2018-08-14T21:31:21.870Z,56.59
2018-08-14T21:33:49.285Z,57.40
2018-08-14T21:36:16.776Z,58.20
2018-08-14T21:38:44.203Z,58.12
2018-08-14T21:41:11.598Z,58.04
2018-08-14T21:43:39.049Z,57.91
2018-08-14T21:46:06.714Z,57.75
2018-08-14T21:48:34.155Z,57.58
2018-08-14T21:51:01.633Z,57.68
2018-08-14T21:53:29.039Z,57.71
2018-08-14T21:55:56.502Z,57.83
2018-08-14T21:58:24.015Z,57.21
2018-08-14T22:00:51.439Z,57.20
2018-08-14T22:03:18.927Z,56.99
2018-08-14T22:05:46.326Z,56.79
2018-08-14T22:08:13.867Z,56.71
2018-08-14T22:10:41.303Z,56.64
2018-08-14T22:13:08.721Z,56.18
2018-08-14T22:15:36.136Z,55.87
2018-08-14T22:18:03.600Z,55.97
2018-08-14T22:20:31.066Z,56.18
2018-08-14T22:22:58.498Z,57.28
2018-08-14T22:25:25.956Z,57.97
2018-08-14T22:27:53.698Z,58.64
2018-08-14T22:30:21.198Z,59.05
2018-08-14T22:32:48.591Z,59.40
2018-08-14T22:35:16.031Z,59.29
2018-08-14T22:37:43.447Z,59.24
2018-08-14T22:40:10.866Z,58.95
2018-08-14T22:42:38.313Z,59.23
2018-08-14T22:45:05.768Z,59.91
2018-08-14T22:47:33.227Z,60.04
2018-08-14T22:50:00.712Z,59.94
2018-08-14T22:52:28.201Z,60.04
2018-08-14T22:54:55.784Z,60.01
2018-08-14T22:57:23.191Z,60.18
2018-08-14T22:59:50.653Z,60.10
2018-08-14T23:02:18.148Z,60.24
2018-08-14T23:04:45.792Z,60.76
2018-08-14T23:07:13.267Z,61.32
2018-08-14T23:09:40.681Z,61.65
2018-08-14T23:12:08.162Z,61.96
2018-08-14T23:14:35.588Z,62.24
2018-08-14T23:17:02.985Z,62.50
2018-08-14T23:19:30.397Z,62.91
2018-08-14T23:21:57.914Z,62.94
2018-08-14T23:24:25.434Z,63.24
2018-08-14T23:26:52.875Z,64.06
2018-08-14T23:29:20.730Z,64.36
2018-08-14T23:31:48.148Z,64.38
2018-08-14T23:34:15.609Z,64.45
2018-08-14T23:36:43.097Z,64.17
2018-08-14T23:39:10.557Z,64.24
2018-08-14T23:41:38.019Z,64.27
2018-08-14T23:44:05.577Z,64.79
2018-08-14T23:46:33.083Z,64.86
2018-08-14T23:49:00.528Z,65.14
2018-08-14T23:51:27.986Z,65.40
2018-08-14T23:53:55.425Z,65.76
2018-08-14T23:56:22.851Z,65.98
2018-08-14T23:58:50.362Z,66.31
